createdAt,value
2022-09-03T00:00:33.236Z,17.39
2022-09-03T00:03:31.174Z,17.36
2022-09-03T00:07:01.026Z,17.40
2022-09-03T00:10:01.468Z,17.37
2022-09-03T00:12:40.290Z,17.40
2022-09-03T00:15:13.714Z,17.36
2022-09-03T00:17:58.378Z,17.36
2022-09-03T00:20:32.283Z,17.34
2022-09-03T00:23:10.168Z,17.35
2022-09-03T00:25:47.702Z,17.35
2022-09-03T00:28:19.494Z,17.31
2022-09-03T00:30:59.035Z,17.31
2022-09-03T00:33:30.412Z,17.33
2022-09-03T00:36:05.966Z,17.31
2022-09-03T00:38:33.840Z,17.29
2022-09-03T00:41:13.770Z,17.27
2022-09-03T00:44:03.650Z,17.23
2022-09-03T00:47:05.702Z,17.14
2022-09-03T00:50:23.498Z,17.19
2022-09-03T00:53:03.895Z,17.18
2022-09-03T00:55:42.220Z,17.17
2022-09-03T00:58:27.184Z,17.17
2022-09-03T01:00:54.253Z,17.14
2022-09-03T01:03:44.632Z,17.12
2022-09-03T01:06:20.962Z,17.07
2022-09-03T01:09:33.480Z,17.02
2022-09-03T01:12:34.931Z,17.07
2022-09-03T01:15:32.728Z,17.05
2022-09-03T01:18:54.772Z,17.07
2022-09-03T01:21:38.572Z,17.05
2022-09-03T01:24:33.792Z,17.02
2022-09-03T01:27:23.045Z,16.99
2022-09-03T01:30:19.150Z,16.98
2022-09-03T01:33:26.248Z,16.98
2022-09-03T01:36:06.018Z,16.95
2022-09-03T01:39:20.141Z,16.93
2022-09-03T01:42:30.347Z,16.96
2022-09-03T01:45:30.406Z,16.95
2022-09-03T01:48:22.402Z,16.91
2022-09-03T01:51:30.823Z,16.91
2022-09-03T01:54:21.012Z,16.89
2022-09-03T01:57:35.510Z,16.88
2022-09-03T02:00:20.212Z,16.86
2022-09-03T02:02:53.604Z,16.82
2022-09-03T02:05:30.894Z,16.78
2022-09-03T02:08:19.763Z,16.76
2022-09-03T02:10:49.330Z,16.75
2022-09-03T02:13:41.152Z,16.74
2022-09-03T02:16:42.936Z,16.74
2022-09-03T02:19:19.444Z,16.74
2022-09-03T02:22:07.511Z,16.72
2022-09-03T02:24:34.458Z,16.70
2022-09-03T02:27:05.424Z,16.69
2022-09-03T02:29:40.854Z,16.68
2022-09-03T02:32:22.810Z,16.63
2022-09-03T02:35:00.009Z,16.68
2022-09-03T02:37:30.246Z,16.67
2022-09-03T02:40:02.424Z,16.67
2022-09-03T02:42:32.936Z,16.65
2022-09-03T02:45:33.930Z,16.67
2022-09-03T02:48:08.117Z,16.65
2022-09-03T02:50:41.363Z,16.60
2022-09-03T02:53:15.102Z,16.61
2022-09-03T02:55:42.282Z,16.59
2022-09-03T02:58:09.177Z,16.57
2022-09-03T03:00:36.975Z,16.56
2022-09-03T03:03:11.662Z,16.54
2022-09-03T03:06:03.909Z,16.53
2022-09-03T03:08:37.737Z,16.53
2022-09-03T03:11:06.202Z,16.48
2022-09-03T03:13:35.380Z,16.45
2022-09-03T03:16:08.388Z,16.46
2022-09-03T03:18:37.429Z,16.45
2022-09-03T03:21:15.495Z,16.44
2022-09-03T03:23:42.784Z,16.40
2022-09-03T03:26:13.445Z,16.40
2022-09-03T03:28:42.469Z,16.39
2022-09-03T03:31:20.331Z,16.38
2022-09-03T03:34:06.123Z,16.37
2022-09-03T03:36:34.312Z,16.35
2022-09-03T03:39:01.945Z,16.36
2022-09-03T03:41:34.010Z,16.35
2022-09-03T03:44:04.658Z,16.35
2022-09-03T03:46:37.541Z,16.34
2022-09-03T03:49:06.552Z,16.31
2022-09-03T03:51:34.821Z,16.27
2022-09-03T03:54:05.252Z,16.26
2022-09-03T03:56:33.571Z,16.24
2022-09-03T03:59:00.749Z,16.24
2022-09-03T04:01:38.822Z,16.23
2022-09-03T04:04:12.849Z,16.21
2022-09-03T04:06:42.241Z,16.22
2022-09-03T04:09:10.545Z,16.17
2022-09-03T04:11:37.613Z,16.18
2022-09-03T04:14:06.536Z,16.16
2022-09-03T04:16:36.651Z,16.15
2022-09-03T04:19:04.952Z,16.14
2022-09-03T04:21:32.031Z,16.12
2022-09-03T04:23:59.283Z,16.10
2022-09-03T04:26:50.318Z,16.09
2022-09-03T04:29:22.063Z,16.08
2022-09-03T04:32:07.747Z,16.06
2022-09-03T04:34:34.572Z,16.05
2022-09-03T04:37:01.371Z,16.04
2022-09-03T04:39:28.326Z,16.03
2022-09-03T04:41:55.242Z,16.01
2022-09-03T04:44:22.137Z,16.01
2022-09-03T04:46:49.735Z,15.98
2022-09-03T04:49:16.661Z,15.99
2022-09-03T04:51:46.496Z,15.97
2022-09-03T04:54:13.393Z,15.95
2022-09-03T04:56:40.637Z,15.92
2022-09-03T04:59:09.613Z,15.92
2022-09-03T05:01:38.987Z,15.90
2022-09-03T05:04:08.274Z,15.91
2022-09-03T05:06:36.980Z,15.87
2022-09-03T05:09:04.621Z,15.86
2022-09-03T05:11:34.961Z,15.86
2022-09-03T05:14:01.921Z,15.85
2022-09-03T05:16:30.851Z,15.83
2022-09-03T05:19:00.104Z,15.82
2022-09-03T05:21:28.481Z,15.81
2022-09-03T05:23:55.732Z,15.79
2022-09-03T05:26:25.310Z,15.80
2022-09-03T05:29:00.848Z,15.77
2022-09-03T05:31:31.607Z,15.76
2022-09-03T05:34:01.557Z,15.76
2022-09-03T05:36:31.200Z,15.74
2022-09-03T05:38:58.725Z,15.73
2022-09-03T05:41:27.344Z,15.70
2022-09-03T05:43:58.816Z,15.70
2022-09-03T05:46:34.028Z,15.65
2022-09-03T05:49:02.542Z,15.66
2022-09-03T05:51:30.870Z,15.64
2022-09-03T05:53:57.985Z,15.65
2022-09-03T05:56:26.959Z,15.66
2022-09-03T05:58:56.339Z,15.63
2022-09-03T06:01:28.271Z,15.63
2022-09-03T06:04:01.070Z,15.62
2022-09-03T06:06:30.043Z,15.60
2022-09-03T06:09:04.147Z,15.57
2022-09-03T06:11:32.961Z,15.60
2022-09-03T06:14:08.206Z,15.60
2022-09-03T06:16:41.244Z,15.60
2022-09-03T06:19:10.898Z,15.59
2022-09-03T06:21:42.758Z,15.62
2022-09-03T06:24:29.734Z,15.59
2022-09-03T06:26:56.773Z,15.63
2022-09-03T06:29:23.755Z,15.64
2022-09-03T06:31:51.324Z,15.65
2022-09-03T06:34:22.743Z,15.63
2022-09-03T06:36:50.534Z,15.69
2022-09-03T06:39:17.501Z,15.71
2022-09-03T06:41:44.858Z,15.70
2022-09-03T06:44:12.352Z,15.78
2022-09-03T06:46:44.059Z,15.81
2022-09-03T06:49:11.879Z,15.86
2022-09-03T06:51:40.030Z,15.86
2022-09-03T06:54:08.692Z,15.92
2022-09-03T06:56:40.298Z,15.94
2022-09-03T06:59:12.952Z,16.01
2022-09-03T07:01:44.301Z,16.05
2022-09-03T07:04:13.334Z,16.10
2022-09-03T07:06:42.779Z,16.16
2022-09-03T07:09:11.941Z,16.22
2022-09-03T07:11:46.945Z,16.28
2022-09-03T07:14:16.140Z,16.30
2022-09-03T07:16:43.851Z,16.40
2022-09-03T07:19:12.097Z,16.45
2022-09-03T07:21:48.175Z,16.50
2022-09-03T07:24:16.938Z,16.57
2022-09-03T07:26:47.085Z,16.62
2022-09-03T07:29:15.864Z,16.65
2022-09-03T07:31:44.015Z,16.74
2022-09-03T07:34:12.970Z,16.78
2022-09-03T07:36:46.981Z,16.82
2022-09-03T07:39:16.693Z,16.83
2022-09-03T07:41:45.933Z,16.88
2022-09-03T07:44:15.304Z,16.89
2022-09-03T07:46:43.658Z,16.95
2022-09-03T07:49:10.998Z,16.97
2022-09-03T07:51:39.429Z,17.00
2022-09-03T07:54:10.845Z,17.05
2022-09-03T07:56:39.464Z,17.08
2022-09-03T07:59:06.791Z,17.09
2022-09-03T08:01:34.869Z,17.12
2022-09-03T08:04:02.691Z,17.19
2022-09-03T08:06:31.223Z,17.24
2022-09-03T08:09:05.642Z,17.27
2022-09-03T08:11:41.005Z,17.39
2022-09-03T08:14:09.930Z,17.47
2022-09-03T08:16:48.222Z,17.55
2022-09-03T08:19:18.211Z,17.58
2022-09-03T08:21:45.302Z,17.67
2022-09-03T08:24:12.654Z,17.76
2022-09-03T08:26:51.134Z,17.82
2022-09-03T08:29:19.007Z,17.88
2022-09-03T08:31:46.060Z,17.92
2022-09-03T08:34:14.653Z,17.98
2022-09-03T08:36:41.713Z,18.06
2022-09-03T08:39:11.263Z,18.10
2022-09-03T08:41:53.257Z,18.17
2022-09-03T08:44:29.628Z,18.22
2022-09-03T08:47:07.090Z,18.28
2022-09-03T08:49:46.671Z,18.34
2022-09-03T08:52:21.932Z,18.40
2022-09-03T08:54:51.650Z,18.45
2022-09-03T08:57:22.056Z,18.48
2022-09-03T08:59:53.748Z,18.55
2022-09-03T09:02:30.015Z,18.58
2022-09-03T09:05:06.051Z,18.60
2022-09-03T09:08:03.203Z,18.65
2022-09-03T09:10:44.420Z,18.66
2022-09-03T09:13:28.022Z,18.70
2022-09-03T09:16:19.454Z,18.70
2022-09-03T09:19:17.723Z,18.73
2022-09-03T09:21:57.182Z,18.76
2022-09-03T09:24:26.799Z,18.74
2022-09-03T09:27:00.282Z,18.80
2022-09-03T09:29:35.713Z,18.87
2022-09-03T09:32:09.657Z,18.94
2022-09-03T09:34:41.252Z,19.02
2022-09-03T09:37:16.190Z,19.12
2022-09-03T09:39:56.820Z,19.18
2022-09-03T09:42:24.354Z,19.25
2022-09-03T09:44:52.073Z,19.30
2022-09-03T09:47:31.722Z,19.38
2022-09-03T09:50:23.645Z,19.47
2022-09-03T09:53:08.493Z,19.54
2022-09-03T09:55:37.593Z,19.58
2022-09-03T09:58:14.356Z,19.69
2022-09-03T10:00:44.800Z,19.73
2022-09-03T10:03:13.818Z,19.78
2022-09-03T10:05:41.011Z,19.83
2022-09-03T10:08:21.190Z,19.86
2022-09-03T10:10:50.885Z,19.86
2022-09-03T10:13:35.161Z,19.91
2022-09-03T10:16:10.897Z,19.93
2022-09-03T10:19:05.227Z,19.97
2022-09-03T10:21:54.501Z,20.05
2022-09-03T10:24:58.338Z,20.09
2022-09-03T10:27:25.940Z,20.09
2022-09-03T10:29:53.467Z,20.14
2022-09-03T10:32:48.584Z,20.18
2022-09-03T10:35:33.792Z,20.22
2022-09-03T10:38:31.035Z,20.27
2022-09-03T10:41:03.777Z,20.29
2022-09-03T10:44:07.461Z,20.31
2022-09-03T10:46:57.584Z,20.35
2022-09-03T10:49:24.401Z,20.38
2022-09-03T10:52:09.621Z,20.41
2022-09-03T10:54:59.164Z,20.44
2022-09-03T10:57:49.421Z,20.50
2022-09-03T11:00:18.879Z,20.51
2022-09-03T11:02:45.855Z,20.53
2022-09-03T11:05:49.082Z,20.57
2022-09-03T11:08:24.736Z,20.58
2022-09-03T11:11:09.658Z,20.59
2022-09-03T11:13:51.653Z,20.60
2022-09-03T11:16:25.768Z,20.64
2022-09-03T11:19:04.286Z,20.64
2022-09-03T11:21:34.098Z,20.69
2022-09-03T11:24:17.551Z,20.70
2022-09-03T11:26:49.074Z,20.76
2022-09-03T11:29:38.111Z,20.78
2022-09-03T11:32:11.853Z,20.80
2022-09-03T11:34:48.442Z,20.85
2022-09-03T11:37:22.673Z,20.88
2022-09-03T11:40:13.712Z,20.92
2022-09-03T11:42:42.614Z,20.95
2022-09-03T11:45:30.256Z,20.95
2022-09-03T11:47:57.508Z,20.95
2022-09-03T11:50:34.546Z,20.97
2022-09-03T11:53:09.343Z,21.00
2022-09-03T11:55:56.019Z,21.02
2022-09-03T11:58:35.159Z,21.03
2022-09-03T12:01:04.342Z,21.06
2022-09-03T12:03:51.743Z,21.06
2022-09-03T12:06:49.397Z,21.11
2022-09-03T12:09:34.858Z,21.13
2022-09-03T12:12:34.114Z,21.15
2022-09-03T12:15:31.879Z,21.18
2022-09-03T12:18:32.719Z,21.22
2022-09-03T12:21:00.279Z,21.24
2022-09-03T12:23:49.183Z,21.26
2022-09-03T12:26:23.858Z,21.30
2022-09-03T12:28:54.458Z,21.32
2022-09-03T12:31:25.682Z,21.33
2022-09-03T12:34:09.701Z,21.34
2022-09-03T12:36:44.733Z,21.36
2022-09-03T12:40:04.806Z,21.41
2022-09-03T12:42:19.774Z,21.39
2022-09-03T12:44:46.684Z,21.40
2022-09-03T12:50:11.376Z,21.44
2022-09-03T12:52:59.389Z,21.43
2022-09-03T12:55:42.375Z,21.45
2022-09-03T12:58:39.253Z,21.46
2022-09-03T13:01:14.304Z,21.49
2022-09-03T13:04:19.147Z,21.51
2022-09-03T13:07:07.220Z,21.53
2022-09-03T13:09:37.961Z,21.53
2022-09-03T13:12:05.942Z,21.55
2022-09-03T13:14:44.298Z,21.56
2022-09-03T13:17:17.202Z,21.59
2022-09-03T13:19:58.470Z,21.61
2022-09-03T13:22:47.470Z,21.65
2022-09-03T13:25:23.242Z,21.68
2022-09-03T13:28:21.299Z,21.71
2022-09-03T13:30:57.691Z,21.75
2022-09-03T13:33:34.965Z,21.77
2022-09-03T13:36:25.984Z,21.79
2022-09-03T13:39:06.390Z,21.81
2022-09-03T13:41:43.691Z,21.85
2022-09-03T13:44:19.428Z,21.89
2022-09-03T13:46:57.464Z,21.91
2022-09-03T13:49:54.973Z,21.94
2022-09-03T13:52:43.017Z,21.97
2022-09-03T13:55:16.722Z,22.00
2022-09-03T13:58:01.567Z,22.04
2022-09-03T14:00:40.140Z,22.06
2022-09-03T14:03:19.231Z,22.09
2022-09-03T14:06:02.111Z,22.13
2022-09-03T14:09:06.629Z,22.16
2022-09-03T14:11:54.772Z,22.20
2022-09-03T14:14:51.181Z,22.23
2022-09-03T14:17:23.681Z,22.26
2022-09-03T14:20:04.231Z,22.28
2022-09-03T14:22:46.885Z,22.31
2022-09-03T14:25:19.812Z,22.35
2022-09-03T14:27:46.756Z,22.37
2022-09-03T14:30:16.835Z,22.43
2022-09-03T14:33:15.419Z,22.46
2022-09-03T14:36:11.358Z,22.49
2022-09-03T14:39:10.638Z,22.52
2022-09-03T14:42:04.603Z,22.53
2022-09-03T14:44:45.559Z,22.54
2022-09-03T14:47:39.618Z,22.56
2022-09-03T14:50:22.678Z,22.56
2022-09-03T14:52:49.979Z,22.57
2022-09-03T14:55:48.058Z,22.63
2022-09-03T14:58:54.953Z,22.65
2022-09-03T15:01:37.613Z,22.68
2022-09-03T15:04:28.484Z,22.70
2022-09-03T15:07:30.977Z,22.73
2022-09-03T15:10:16.967Z,22.73
2022-09-03T15:12:49.936Z,22.74
2022-09-03T15:15:24.823Z,22.76
2022-09-03T15:17:59.069Z,22.77
2022-09-03T15:20:43.701Z,22.79
2022-09-03T15:23:52.216Z,22.82
2022-09-03T15:26:40.908Z,22.81
2022-09-03T15:29:37.410Z,22.85
2022-09-03T15:32:44.311Z,22.87
2022-09-03T15:35:29.475Z,22.91
2022-09-03T15:38:01.614Z,22.91
2022-09-03T15:40:37.009Z,22.97
2022-09-03T15:43:09.447Z,22.99
2022-09-03T15:45:59.393Z,23.03
2022-09-03T15:48:44.711Z,23.04
2022-09-03T15:51:16.310Z,23.06
2022-09-03T15:53:56.974Z,23.08
2022-09-03T15:56:59.724Z,23.10
2022-09-03T15:59:35.822Z,23.11
2022-09-03T16:02:27.619Z,23.13
2022-09-03T16:05:14.303Z,23.14
2022-09-03T16:07:53.166Z,23.15
2022-09-03T16:10:25.446Z,23.16
2022-09-03T16:13:05.819Z,23.17
2022-09-03T16:15:45.694Z,23.18
2022-09-03T16:18:26.030Z,23.17
2022-09-03T16:21:13.318Z,23.18
2022-09-03T16:23:49.257Z,23.21
2022-09-03T16:26:26.797Z,23.20
2022-09-03T16:29:21.310Z,23.18
2022-09-03T16:32:03.116Z,23.19
2022-09-03T16:34:47.745Z,23.18
2022-09-03T16:37:20.707Z,23.17
2022-09-03T16:40:09.755Z,23.18
2022-09-03T16:42:42.543Z,23.16
2022-09-03T16:45:41.343Z,23.16
2022-09-03T16:48:38.747Z,23.15
2022-09-03T16:51:12.267Z,23.14
2022-09-03T16:54:14.310Z,23.12
2022-09-03T16:57:08.814Z,23.10
2022-09-03T16:59:41.456Z,23.10
2022-09-03T17:02:37.119Z,23.08
2022-09-03T17:05:13.356Z,23.07
2022-09-03T17:08:14.055Z,23.05
2022-09-03T17:11:20.279Z,23.04
2022-09-03T17:13:59.491Z,23.00
2022-09-03T17:16:35.288Z,23.01
2022-09-03T17:19:29.280Z,22.99
2022-09-03T17:22:06.890Z,22.97
2022-09-03T17:24:36.222Z,22.93
2022-09-03T17:27:38.626Z,22.91
2022-09-03T17:30:23.309Z,22.92
2022-09-03T17:33:09.802Z,22.90
2022-09-03T17:35:55.197Z,22.88
2022-09-03T17:38:52.458Z,22.86
2022-09-03T17:41:22.326Z,22.82
2022-09-03T17:44:04.049Z,22.83
2022-09-03T17:46:33.832Z,22.81
2022-09-03T17:49:08.287Z,22.80
2022-09-03T17:51:47.482Z,22.80
2022-09-03T17:54:23.239Z,22.77
2022-09-03T17:56:59.836Z,22.75
2022-09-03T17:59:46.238Z,22.73
2022-09-03T18:02:39.898Z,22.72
2022-09-03T18:05:34.379Z,22.69
2022-09-03T18:08:24.866Z,22.68
2022-09-03T18:11:19.412Z,22.65
2022-09-03T18:14:15.799Z,22.63
2022-09-03T18:16:52.818Z,22.57
2022-09-03T18:19:31.751Z,22.57
2022-09-03T18:22:20.858Z,22.56
2022-09-03T18:25:17.892Z,22.53
2022-09-03T18:28:07.618Z,22.49
2022-09-03T18:30:53.248Z,22.41
2022-09-03T18:33:43.124Z,22.40
2022-09-03T18:36:29.723Z,22.39
2022-09-03T18:39:25.947Z,22.35
2022-09-03T18:42:32.995Z,22.32
2022-09-03T18:45:47.799Z,22.27
2022-09-03T18:48:57.805Z,22.22
2022-09-03T18:51:58.541Z,22.15
2022-09-03T18:55:08.548Z,22.12
2022-09-03T18:58:13.383Z,22.08
2022-09-03T19:01:09.831Z,22.04
2022-09-03T19:04:10.079Z,22.00
2022-09-03T19:07:18.429Z,21.95
2022-09-03T19:10:21.373Z,21.92
2022-09-03T19:13:10.620Z,21.89
2022-09-03T19:16:22.222Z,21.85
2022-09-03T19:19:26.648Z,21.81
2022-09-03T19:22:17.934Z,21.74
2022-09-03T19:25:15.005Z,21.71
2022-09-03T19:28:27.442Z,21.65
2022-09-03T19:31:34.410Z,21.61
2022-09-03T19:35:01.403Z,21.55
2022-09-03T19:37:55.612Z,21.49
2022-09-03T19:40:47.578Z,21.43
2022-09-03T19:43:55.562Z,21.38
2022-09-03T19:46:51.577Z,21.28
2022-09-03T19:49:54.056Z,21.24
2022-09-03T19:52:59.481Z,21.20
2022-09-03T19:55:49.398Z,21.14
2022-09-03T19:58:43.591Z,21.09
2022-09-03T20:01:31.435Z,21.04
2022-09-03T20:04:22.573Z,21.01
2022-09-03T20:07:08.241Z,20.96
2022-09-03T20:09:59.880Z,20.93
2022-09-03T20:12:32.255Z,20.90
2022-09-03T20:14:59.040Z,20.85
2022-09-03T20:18:09.702Z,20.81
2022-09-03T20:20:58.562Z,20.76
2022-09-03T20:23:35.637Z,20.71
2022-09-03T20:26:20.421Z,20.65
2022-09-03T20:29:06.917Z,20.61
2022-09-03T20:32:00.147Z,20.52
2022-09-03T20:34:34.363Z,20.44
2022-09-03T20:37:17.482Z,20.47
2022-09-03T20:40:25.688Z,20.43
2022-09-03T20:43:34.382Z,20.39
2022-09-03T20:46:27.749Z,20.30
2022-09-03T20:49:13.361Z,20.31
2022-09-03T20:52:07.304Z,20.25
2022-09-03T20:54:53.536Z,20.21
2022-09-03T20:58:03.731Z,20.15
2022-09-03T21:00:51.118Z,20.13
2022-09-03T21:03:42.782Z,20.08
2022-09-03T21:06:43.163Z,19.99
2022-09-03T21:09:58.158Z,20.03
2022-09-03T21:13:11.617Z,19.96
2022-09-03T21:15:55.804Z,19.94
2022-09-03T21:18:43.846Z,19.90
2022-09-03T21:21:27.698Z,19.86
2022-09-03T21:24:03.923Z,19.80
2022-09-03T21:26:42.049Z,19.75
2022-09-03T21:29:21.469Z,19.77
2022-09-03T21:32:16.842Z,19.75
2022-09-03T21:34:58.177Z,19.71
2022-09-03T21:37:25.117Z,19.69
2022-09-03T21:39:55.926Z,19.67
2022-09-03T21:42:42.232Z,19.64
2022-09-03T21:45:22.150Z,19.60
2022-09-03T21:47:58.443Z,19.57
2022-09-03T21:50:36.488Z,19.53
2022-09-03T21:53:12.871Z,19.50
2022-09-03T21:56:13.627Z,19.49
2022-09-03T21:59:05.769Z,19.45
2022-09-03T22:01:54.476Z,19.41
2022-09-03T22:04:21.420Z,19.38
2022-09-03T22:07:15.662Z,19.35
2022-09-03T22:09:51.760Z,19.32
2022-09-03T22:12:37.298Z,19.29
2022-09-03T22:15:11.422Z,19.26
2022-09-03T22:17:47.145Z,19.19
2022-09-03T22:20:15.511Z,19.21
2022-09-03T22:23:03.708Z,19.20
2022-09-03T22:25:45.345Z,19.17
2022-09-03T22:28:24.611Z,19.13
2022-09-03T22:30:58.455Z,19.10
2022-09-03T22:33:46.601Z,19.08
2022-09-03T22:36:24.417Z,19.02
2022-09-03T22:39:17.595Z,19.01
2022-09-03T22:41:53.121Z,18.99
2022-09-03T22:44:27.439Z,18.95
2022-09-03T22:47:04.685Z,18.95
2022-09-03T22:50:05.459Z,18.92
2022-09-03T22:52:38.520Z,18.90
2022-09-03T22:55:18.390Z,18.87
2022-09-03T22:58:08.802Z,18.85
2022-09-03T23:00:43.168Z,18.83
2022-09-03T23:03:24.385Z,18.80
2022-09-03T23:06:01.680Z,18.78
2022-09-03T23:08:39.281Z,18.75
2022-09-03T23:11:12.981Z,18.74
2022-09-03T23:13:48.755Z,18.73
2022-09-03T23:16:35.616Z,18.70
2022-09-03T23:22:05.123Z,18.65
2022-09-03T23:24:44.827Z,18.62
2022-09-03T23:27:18.281Z,18.59
2022-09-03T23:29:55.597Z,18.58
2022-09-03T23:32:24.744Z,18.55
2022-09-03T23:34:57.288Z,18.52
2022-09-03T23:37:33.936Z,18.52
2022-09-03T23:40:07.610Z,18.50
2022-09-03T23:43:02.377Z,18.49
2022-09-03T23:46:00.475Z,18.46
2022-09-03T23:48:46.457Z,18.43
2022-09-03T23:51:16.181Z,18.39
2022-09-03T23:53:49.235Z,18.35
2022-09-03T23:56:37.165Z,18.31
2022-09-03T23:59:34.028Z,18.27
